createdAt,value
2023-02-16T00:01:22.607Z,57.70
2023-02-16T00:03:53.715Z,43.40
2023-02-16T00:06:24.083Z,47.70
2023-02-16T00:08:58.395Z,38.20
2023-02-16T00:11:46.120Z,32.70
2023-02-16T00:14:17.205Z,23.80
2023-02-16T00:16:47.157Z,31.80
2023-02-16T00:19:22.902Z,59.80
2023-02-16T00:21:54.781Z,90.00
2023-02-16T00:24:28.543Z,96.00
2023-02-16T00:26:59.321Z,99.90
2023-02-16T00:29:32.402Z,99.90
2023-02-16T00:32:04.634Z,99.90
2023-02-16T00:34:36.393Z,99.90
2023-02-16T00:37:07.958Z,99.90
2023-02-16T00:39:42.004Z,99.90
2023-02-16T00:42:19.977Z,99.90
2023-02-16T00:44:51.923Z,99.90
2023-02-16T00:47:24.327Z,99.90
2023-02-16T00:49:56.942Z,99.90
2023-02-16T00:52:35.879Z,99.90
2023-02-16T00:55:11.620Z,99.90
2023-02-16T00:57:45.181Z,99.90
2023-02-16T01:00:20.766Z,99.90
2023-02-16T01:02:53.402Z,99.90
2023-02-16T01:05:23.778Z,99.90
2023-02-16T01:08:06.821Z,99.90
2023-02-16T01:10:53.250Z,99.90
2023-02-16T01:13:23.438Z,99.90
2023-02-16T01:15:53.262Z,99.90
2023-02-16T01:18:24.163Z,99.90
2023-02-16T01:20:54.692Z,99.90
2023-02-16T01:23:24.483Z,99.90
2023-02-16T01:25:57.226Z,99.90
2023-02-16T01:28:28.263Z,99.90
2023-02-16T01:30:58.494Z,99.90
2023-02-16T01:33:29.095Z,99.90
2023-02-16T01:36:01.074Z,99.90
2023-02-16T01:38:31.886Z,99.90
2023-02-16T01:41:22.800Z,99.90
2023-02-16T01:43:55.749Z,99.90
2023-02-16T01:46:34.333Z,99.90
2023-02-16T01:49:04.459Z,99.90
2023-02-16T01:51:40.200Z,99.90
2023-02-16T01:54:16.388Z,99.90
2023-02-16T01:56:53.135Z,99.90
2023-02-16T01:59:32.277Z,99.90
2023-02-16T02:02:03.906Z,99.90
2023-02-16T02:04:55.600Z,99.90
2023-02-16T02:07:30.573Z,99.90
2023-02-16T02:10:06.174Z,99.90
2023-02-16T02:12:48.841Z,99.90
2023-02-16T02:15:22.577Z,99.90
2023-02-16T02:17:52.674Z,99.90
2023-02-16T02:20:49.155Z,99.90
2023-02-16T02:23:36.523Z,99.90
2023-02-16T02:26:42.438Z,99.90
2023-02-16T02:29:39.012Z,99.90
2023-02-16T02:32:18.815Z,99.90
2023-02-16T02:35:03.263Z,99.90
2023-02-16T02:37:47.389Z,99.90
2023-02-16T02:40:23.616Z,99.90
2023-02-16T02:43:07.643Z,99.90
2023-02-16T02:45:41.646Z,99.90
2023-02-16T02:48:11.916Z,99.90
2023-02-16T02:51:04.716Z,99.90
2023-02-16T02:53:37.653Z,99.90
2023-02-16T02:56:22.269Z,99.90
2023-02-16T02:59:12.594Z,99.90
2023-02-16T03:01:46.085Z,99.90
2023-02-16T03:04:21.821Z,99.90
2023-02-16T03:06:55.421Z,99.90
2023-02-16T03:09:27.022Z,99.90
2023-02-16T03:12:10.814Z,99.90
2023-02-16T03:14:47.545Z,99.90
2023-02-16T03:17:33.237Z,99.90
2023-02-16T03:20:18.343Z,99.90
2023-02-16T03:23:01.129Z,99.90
2023-02-16T03:25:47.467Z,99.90
2023-02-16T03:28:31.312Z,99.90
2023-02-16T03:31:06.311Z,99.90
2023-02-16T03:33:36.996Z,99.90
2023-02-16T03:36:08.387Z,99.90
2023-02-16T03:38:39.548Z,99.90
2023-02-16T03:41:09.851Z,99.90
2023-02-16T03:43:39.907Z,99.90
2023-02-16T03:46:12.857Z,99.90
2023-02-16T03:48:42.879Z,99.90
2023-02-16T03:51:12.774Z,99.90
2023-02-16T03:53:42.609Z,99.90
2023-02-16T03:56:13.639Z,99.90
2023-02-16T03:58:43.700Z,99.90
2023-02-16T04:01:16.291Z,99.90
2023-02-16T04:03:46.299Z,99.90
2023-02-16T04:06:16.590Z,99.90
2023-02-16T04:08:46.463Z,99.90
2023-02-16T04:11:28.772Z,99.90
2023-02-16T04:14:01.582Z,99.90
2023-02-16T04:16:34.015Z,99.90
2023-02-16T04:19:03.787Z,99.90
2023-02-16T04:21:33.879Z,99.90
2023-02-16T04:24:05.809Z,99.90
2023-02-16T04:26:36.015Z,99.90
2023-02-16T04:29:05.772Z,99.90
2023-02-16T04:31:38.522Z,99.90
2023-02-16T04:34:08.596Z,99.30
2023-02-16T04:36:38.435Z,94.20
2023-02-16T04:39:08.227Z,99.90
2023-02-16T04:41:38.344Z,99.90
2023-02-16T04:44:08.524Z,99.90
2023-02-16T04:46:42.712Z,99.90
2023-02-16T04:49:12.567Z,99.90
2023-02-16T04:51:42.653Z,99.90
2023-02-16T04:54:12.499Z,99.90
2023-02-16T04:56:42.597Z,99.90
2023-02-16T04:59:12.379Z,99.90
2023-02-16T05:01:46.126Z,99.90
2023-02-16T05:04:16.558Z,99.90
2023-02-16T05:06:46.690Z,99.90
2023-02-16T05:09:16.584Z,99.90
2023-02-16T05:11:59.055Z,99.90
2023-02-16T05:14:46.371Z,99.90
2023-02-16T05:17:21.207Z,99.90
2023-02-16T05:19:53.734Z,99.90
2023-02-16T05:22:23.693Z,99.90
2023-02-16T05:24:53.724Z,99.90
2023-02-16T05:27:26.586Z,99.90
2023-02-16T05:29:56.629Z,99.90
2023-02-16T05:32:29.735Z,99.90
2023-02-16T05:34:59.536Z,99.90
2023-02-16T05:37:29.348Z,99.90
2023-02-16T05:39:59.668Z,99.90
2023-02-16T05:42:29.520Z,99.90
2023-02-16T05:44:59.741Z,99.90
2023-02-16T05:47:32.129Z,99.90
2023-02-16T05:50:02.008Z,99.90
2023-02-16T05:52:31.809Z,99.90
2023-02-16T05:55:01.826Z,99.90
2023-02-16T05:57:34.895Z,99.90
2023-02-16T06:00:05.327Z,99.90
2023-02-16T06:02:38.371Z,99.90
2023-02-16T06:05:08.980Z,99.90
2023-02-16T06:07:38.785Z,99.90
2023-02-16T06:10:10.110Z,99.90
2023-02-16T06:12:40.077Z,99.90
2023-02-16T06:15:10.614Z,99.90
2023-02-16T06:17:47.072Z,99.90
2023-02-16T06:20:16.971Z,99.90
2023-02-16T06:22:46.762Z,99.90
2023-02-16T06:25:18.737Z,99.90
2023-02-16T06:27:50.123Z,99.90
2023-02-16T06:30:21.822Z,99.90
2023-02-16T06:32:55.430Z,99.90
2023-02-16T06:35:25.528Z,99.90
2023-02-16T06:37:55.831Z,99.90
2023-02-16T06:40:28.937Z,99.90
2023-02-16T06:43:00.251Z,99.90
2023-02-16T06:45:31.100Z,99.90
2023-02-16T06:48:04.134Z,99.90
2023-02-16T06:50:34.400Z,99.90
2023-02-16T06:53:04.233Z,99.90
2023-02-16T06:55:36.882Z,99.90
2023-02-16T06:58:07.781Z,99.90
2023-02-16T07:00:38.281Z,99.90
2023-02-16T07:03:10.999Z,99.90
2023-02-16T07:05:41.760Z,99.90
2023-02-16T07:08:11.839Z,99.90
2023-02-16T07:10:49.979Z,99.90
2023-02-16T07:13:20.712Z,99.90
2023-02-16T07:15:51.599Z,99.90
2023-02-16T07:18:24.322Z,99.90
2023-02-16T07:20:54.488Z,99.90
2023-02-16T07:23:24.969Z,99.90
2023-02-16T07:25:55.446Z,99.90
2023-02-16T07:28:25.660Z,99.90
2023-02-16T07:30:56.352Z,99.90
2023-02-16T07:33:29.134Z,99.90
2023-02-16T07:35:59.257Z,99.90
2023-02-16T07:38:30.845Z,99.90
2023-02-16T07:41:01.862Z,99.90
2023-02-16T07:43:32.668Z,99.90
2023-02-16T07:46:03.154Z,99.90
2023-02-16T07:48:36.094Z,99.90
2023-02-16T07:51:07.910Z,99.90
2023-02-16T07:53:38.714Z,99.90
2023-02-16T07:56:09.422Z,99.90
2023-02-16T07:58:39.648Z,99.90
2023-02-16T08:01:14.788Z,99.90
2023-02-16T08:03:48.461Z,99.90
2023-02-16T08:06:19.367Z,99.90
2023-02-16T08:08:50.145Z,99.90
2023-02-16T08:11:24.052Z,99.90
2023-02-16T08:13:55.117Z,99.90
2023-02-16T08:16:28.168Z,99.90
2023-02-16T08:19:03.849Z,99.90
2023-02-16T08:21:37.183Z,99.90
2023-02-16T08:24:09.534Z,99.90
2023-02-16T08:26:42.127Z,99.90
2023-02-16T08:29:13.436Z,99.90
2023-02-16T08:31:44.652Z,99.90
2023-02-16T08:34:22.898Z,99.90
2023-02-16T08:36:57.061Z,99.90
2023-02-16T08:39:29.049Z,99.90
2023-02-16T08:42:00.727Z,99.90
2023-02-16T08:44:32.449Z,99.90
2023-02-16T08:47:04.607Z,99.90
2023-02-16T08:49:40.025Z,99.90
2023-02-16T08:52:12.770Z,99.90
2023-02-16T08:54:43.257Z,99.90
2023-02-16T08:57:13.892Z,99.80
2023-02-16T08:59:44.293Z,82.30
2023-02-16T09:02:18.404Z,55.70
2023-02-16T09:04:51.133Z,25.80
2023-02-16T09:07:22.363Z,13.00
2023-02-16T09:09:53.161Z,1.00
2023-02-16T09:12:23.428Z,1.00
2023-02-16T09:14:53.437Z,1.00
2023-02-16T09:17:23.922Z,1.00
2023-02-16T09:19:56.554Z,1.00
2023-02-16T09:22:27.204Z,1.00
2023-02-16T09:25:01.259Z,1.00
2023-02-16T09:27:31.847Z,1.00
2023-02-16T09:30:02.046Z,1.00
2023-02-16T09:32:32.410Z,1.00
2023-02-16T09:35:05.775Z,1.00
2023-02-16T09:37:36.333Z,1.00
2023-02-16T09:40:07.683Z,1.00
2023-02-16T09:42:55.755Z,1.00
2023-02-16T09:45:29.067Z,1.00
2023-02-16T09:48:01.561Z,1.00
2023-02-16T09:50:53.418Z,1.00
2023-02-16T09:53:31.828Z,1.00
2023-02-16T09:56:23.459Z,1.00
2023-02-16T09:58:59.959Z,1.00
2023-02-16T10:01:39.125Z,1.00
2023-02-16T10:04:30.180Z,1.00
2023-02-16T10:07:13.072Z,1.00
2023-02-16T10:09:47.379Z,1.00
2023-02-16T10:12:24.251Z,99.90
2023-02-16T10:14:57.090Z,99.90
2023-02-16T10:17:35.274Z,99.90
2023-02-16T10:20:14.152Z,99.90
2023-02-16T10:22:53.070Z,99.90
2023-02-16T10:25:29.177Z,99.90
2023-02-16T10:28:19.859Z,99.90
2023-02-16T10:30:56.904Z,99.90
2023-02-16T10:33:44.093Z,99.90
2023-02-16T10:36:21.711Z,99.90
2023-02-16T10:39:02.445Z,99.90
2023-02-16T10:41:37.761Z,99.90
2023-02-16T10:44:15.510Z,99.90
2023-02-16T10:46:49.485Z,99.90
2023-02-16T10:49:21.742Z,99.90
2023-02-16T10:51:54.827Z,99.90
2023-02-16T10:54:30.389Z,99.90
2023-02-16T10:57:04.270Z,99.90
2023-02-16T10:59:40.225Z,99.90
2023-02-16T11:02:22.252Z,99.90
2023-02-16T11:04:54.429Z,99.90
2023-02-16T11:07:26.992Z,99.90
2023-02-16T11:10:03.075Z,99.90
2023-02-16T11:12:37.016Z,99.90
2023-02-16T11:15:25.254Z,99.90
2023-02-16T11:17:58.250Z,99.90
2023-02-16T11:20:31.966Z,99.90
2023-02-16T11:23:24.894Z,99.90
2023-02-16T11:26:03.801Z,99.90
2023-02-16T11:28:37.067Z,99.90
2023-02-16T11:31:18.989Z,99.90
2023-02-16T11:34:01.337Z,99.90
2023-02-16T11:36:36.109Z,99.90
2023-02-16T11:39:11.796Z,99.90
2023-02-16T11:41:53.960Z,99.90
2023-02-16T11:44:31.816Z,99.90
2023-02-16T11:47:05.464Z,99.90
2023-02-16T11:49:39.289Z,99.90
2023-02-16T11:52:30.779Z,99.90
2023-02-16T11:55:05.029Z,99.90
2023-02-16T11:57:39.338Z,99.90
2023-02-16T12:00:19.393Z,99.90
2023-02-16T12:03:23.001Z,99.90
2023-02-16T12:06:07.053Z,99.90
2023-02-16T12:08:52.603Z,99.90
2023-02-16T12:11:33.261Z,99.90
2023-02-16T12:14:22.753Z,99.90
2023-02-16T12:17:01.909Z,99.90
2023-02-16T12:19:40.126Z,99.90
2023-02-16T12:22:27.345Z,99.90
2023-02-16T12:25:12.612Z,99.90
2023-02-16T12:27:48.586Z,99.90
2023-02-16T12:30:34.030Z,99.90
2023-02-16T12:33:21.410Z,98.70
2023-02-16T12:36:10.795Z,98.80
2023-02-16T12:38:51.398Z,99.60
2023-02-16T12:41:31.001Z,99.90
2023-02-16T12:44:06.508Z,99.70
2023-02-16T12:46:44.878Z,99.90
2023-02-16T12:49:19.417Z,99.90
2023-02-16T12:51:53.508Z,99.90
2023-02-16T12:54:28.026Z,97.30
2023-02-16T12:57:03.904Z,93.30
2023-02-16T12:59:42.805Z,91.50
2023-02-16T13:02:22.052Z,99.90
2023-02-16T13:04:59.412Z,73.30
2023-02-16T13:07:34.898Z,90.60
2023-02-16T13:10:10.688Z,73.40
2023-02-16T13:12:45.045Z,94.60
2023-02-16T13:15:18.788Z,66.20
2023-02-16T13:17:55.674Z,54.10
2023-02-16T13:20:27.773Z,43.50
2023-02-16T13:23:28.090Z,58.60
2023-02-16T13:26:18.440Z,48.10
2023-02-16T13:29:17.439Z,62.80
2023-02-16T13:32:00.725Z,95.40
2023-02-16T13:35:01.868Z,99.90
2023-02-16T13:37:49.260Z,84.10
2023-02-16T13:40:39.627Z,94.50
2023-02-16T13:43:22.997Z,92.40
2023-02-16T13:45:54.621Z,78.80
2023-02-16T13:48:28.452Z,86.20
2023-02-16T13:51:04.814Z,42.90
2023-02-16T13:53:40.317Z,26.30
2023-02-16T13:56:22.589Z,22.10
2023-02-16T13:58:54.165Z,37.80
2023-02-16T14:01:41.668Z,49.50
2023-02-16T14:04:17.125Z,19.70
2023-02-16T14:06:49.551Z,53.40
2023-02-16T14:09:39.173Z,49.00
2023-02-16T14:12:21.263Z,40.80
2023-02-16T14:15:07.677Z,40.30
2023-02-16T14:17:38.713Z,57.00
2023-02-16T14:20:28.324Z,59.80
2023-02-16T14:23:02.665Z,75.60
2023-02-16T14:25:40.286Z,79.80
2023-02-16T14:28:40.149Z,83.40
2023-02-16T14:31:18.467Z,59.10
2023-02-16T14:33:58.864Z,69.60
2023-02-16T14:36:29.272Z,75.70
2023-02-16T14:39:04.280Z,87.50
2023-02-16T14:41:36.936Z,80.30
2023-02-16T14:44:34.093Z,91.10
2023-02-16T14:47:14.868Z,94.90
2023-02-16T14:50:05.338Z,95.20
2023-02-16T14:53:20.650Z,99.90
2023-02-16T14:56:19.039Z,99.90
2023-02-16T14:58:57.445Z,99.90
2023-02-16T15:01:28.201Z,99.90
2023-02-16T15:04:04.899Z,99.90
2023-02-16T15:06:38.696Z,99.90
2023-02-16T15:09:17.977Z,99.90
2023-02-16T15:12:08.632Z,99.90
2023-02-16T15:14:45.377Z,99.90
2023-02-16T15:17:28.162Z,99.90
2023-02-16T15:20:00.476Z,99.90
2023-02-16T15:22:30.317Z,99.90
2023-02-16T15:25:03.368Z,99.90
2023-02-16T15:27:35.795Z,99.90
2023-02-16T15:30:09.615Z,99.90
2023-02-16T15:32:39.712Z,99.90
2023-02-16T15:35:15.695Z,99.90
2023-02-16T15:37:45.631Z,99.90
2023-02-16T15:40:25.494Z,99.90
2023-02-16T15:43:08.494Z,99.90
2023-02-16T15:45:41.185Z,99.90
2023-02-16T15:48:26.183Z,99.90
2023-02-16T15:51:00.543Z,99.90
2023-02-16T15:53:42.555Z,99.90
2023-02-16T15:56:31.576Z,99.90
2023-02-16T15:59:07.055Z,99.90
2023-02-16T16:01:38.789Z,99.90
2023-02-16T16:04:19.177Z,99.90
2023-02-16T16:06:51.210Z,99.90
2023-02-16T16:09:27.110Z,99.90
2023-02-16T16:11:59.236Z,99.90
2023-02-16T16:14:33.372Z,1.00
2023-02-16T16:17:03.703Z,1.00
2023-02-16T16:19:38.955Z,1.00
2023-02-16T16:22:33.065Z,1.00
2023-02-16T16:25:04.238Z,1.00
2023-02-16T16:27:37.433Z,1.00
2023-02-16T16:30:31.369Z,1.00
2023-02-16T16:33:06.353Z,1.00
2023-02-16T16:35:39.519Z,1.00
2023-02-16T16:38:23.364Z,1.00
2023-02-16T16:40:55.330Z,1.00
2023-02-16T16:43:32.225Z,1.00
2023-02-16T16:46:25.418Z,16.60
2023-02-16T16:49:03.539Z,65.50
2023-02-16T16:51:45.157Z,97.40
2023-02-16T16:54:16.586Z,99.90
2023-02-16T16:56:47.693Z,99.90
2023-02-16T16:59:20.258Z,99.90
2023-02-16T17:01:53.187Z,99.90
2023-02-16T17:04:27.454Z,99.90
2023-02-16T17:06:59.441Z,99.90
2023-02-16T17:09:29.433Z,99.90
2023-02-16T17:11:59.547Z,99.90
2023-02-16T17:14:29.480Z,99.90
2023-02-16T17:17:02.098Z,99.90
2023-02-16T17:19:32.736Z,99.90
2023-02-16T17:22:02.565Z,99.90
2023-02-16T17:24:32.578Z,99.90
2023-02-16T17:27:02.429Z,99.90
2023-02-16T17:29:32.283Z,99.90
2023-02-16T17:32:05.544Z,99.90
2023-02-16T17:34:35.497Z,99.90
2023-02-16T17:37:07.969Z,99.90
2023-02-16T17:39:38.934Z,99.90
2023-02-16T17:42:12.828Z,99.90
2023-02-16T17:44:43.097Z,99.90
2023-02-16T17:47:18.152Z,99.90
2023-02-16T17:49:48.005Z,99.90
2023-02-16T17:52:17.985Z,99.90
2023-02-16T17:54:48.202Z,99.90
2023-02-16T17:57:18.081Z,99.90
2023-02-16T17:59:47.978Z,99.90
2023-02-16T18:02:20.552Z,99.90
2023-02-16T18:04:50.434Z,99.90
2023-02-16T18:07:21.700Z,99.90
2023-02-16T18:09:51.672Z,99.90
2023-02-16T18:12:21.593Z,99.90
2023-02-16T18:14:51.451Z,99.90
2023-02-16T18:17:24.126Z,99.90
2023-02-16T18:19:54.322Z,99.90
2023-02-16T18:22:24.059Z,99.90
2023-02-16T18:24:53.890Z,99.90
2023-02-16T18:27:23.963Z,99.90
2023-02-16T18:29:54.798Z,99.90
2023-02-16T18:32:27.297Z,99.90
2023-02-16T18:34:57.673Z,99.90
2023-02-16T18:37:27.950Z,99.90
2023-02-16T18:39:58.117Z,99.90
2023-02-16T18:42:27.929Z,99.90
2023-02-16T18:44:57.845Z,99.90
2023-02-16T18:47:30.747Z,99.90
2023-02-16T18:50:00.875Z,99.90
2023-02-16T18:52:30.800Z,99.90
2023-02-16T18:55:00.961Z,99.90
2023-02-16T18:57:30.831Z,99.90
2023-02-16T19:00:00.968Z,99.90
2023-02-16T19:02:33.746Z,99.90
2023-02-16T19:05:03.829Z,99.90
2023-02-16T19:07:33.987Z,99.90
2023-02-16T19:10:04.082Z,99.90
2023-02-16T19:12:34.352Z,99.90
2023-02-16T19:15:04.513Z,99.90
2023-02-16T19:17:38.643Z,99.90
2023-02-16T19:20:12.591Z,99.90
2023-02-16T19:22:42.395Z,99.90
2023-02-16T19:25:12.964Z,99.90
2023-02-16T19:27:42.806Z,99.90
2023-02-16T19:30:14.444Z,99.90
2023-02-16T19:32:46.900Z,99.90
2023-02-16T19:35:16.794Z,99.90
2023-02-16T19:37:46.877Z,99.90
2023-02-16T19:40:17.712Z,99.90
2023-02-16T19:42:47.631Z,99.90
2023-02-16T19:45:17.831Z,99.90
2023-02-16T19:47:52.870Z,99.90
2023-02-16T19:50:23.263Z,99.90
2023-02-16T19:52:53.082Z,99.90
2023-02-16T19:55:23.232Z,99.90
2023-02-16T19:57:53.124Z,99.90
2023-02-16T20:00:23.600Z,99.90
2023-02-16T20:02:56.082Z,99.90
2023-02-16T20:05:26.016Z,99.90
2023-02-16T20:07:55.817Z,99.90
2023-02-16T20:10:25.821Z,99.90
2023-02-16T20:12:55.568Z,99.90
2023-02-16T20:15:25.530Z,99.90
2023-02-16T20:17:58.592Z,99.90
2023-02-16T20:20:28.855Z,99.90
2023-02-16T20:23:00.218Z,99.90
2023-02-16T20:25:30.116Z,99.90
2023-02-16T20:28:00.814Z,99.90
2023-02-16T20:30:30.863Z,99.90
2023-02-16T20:33:03.420Z,99.90
2023-02-16T20:35:36.821Z,99.90
2023-02-16T20:38:06.955Z,99.90
2023-02-16T20:40:37.471Z,99.90
2023-02-16T20:43:20.985Z,99.90
2023-02-16T20:45:51.050Z,99.90
2023-02-16T20:48:23.506Z,99.90
2023-02-16T20:50:57.295Z,99.90
2023-02-16T20:53:28.238Z,99.90
2023-02-16T20:56:04.971Z,99.90
2023-02-16T20:58:35.795Z,99.90
2023-02-16T21:01:12.775Z,99.90
2023-02-16T21:03:46.105Z,99.90
2023-02-16T21:06:16.370Z,99.90
2023-02-16T21:08:46.451Z,99.90
2023-02-16T21:11:17.562Z,99.90
2023-02-16T21:13:47.965Z,99.90
2023-02-16T21:16:18.038Z,99.90
2023-02-16T21:18:50.570Z,99.90
2023-02-16T21:21:20.764Z,99.90
2023-02-16T21:23:52.663Z,99.90
2023-02-16T21:26:25.232Z,99.90
2023-02-16T21:28:55.311Z,99.90
2023-02-16T21:31:27.616Z,99.90
2023-02-16T21:34:00.197Z,99.90
2023-02-16T21:36:30.767Z,99.90
2023-02-16T21:39:01.649Z,99.90
2023-02-16T21:41:29.737Z,99.90
2023-02-16T21:44:02.312Z,99.90
2023-02-16T21:46:34.966Z,99.90
2023-02-16T21:49:05.668Z,99.90
2023-02-16T21:51:36.986Z,99.90
2023-02-16T21:54:09.210Z,99.90
2023-02-16T21:56:39.494Z,99.90
2023-02-16T21:59:11.356Z,99.90
2023-02-16T22:01:43.901Z,99.90
2023-02-16T22:04:19.418Z,99.90
2023-02-16T22:06:50.877Z,99.90
2023-02-16T22:09:22.989Z,99.90
2023-02-16T22:11:54.248Z,99.90
2023-02-16T22:14:24.069Z,99.90
2023-02-16T22:16:54.160Z,99.90
2023-02-16T22:19:26.525Z,99.90
2023-02-16T22:21:57.007Z,99.90
2023-02-16T22:24:26.811Z,99.90
2023-02-16T22:26:56.621Z,99.90
2023-02-16T22:29:26.405Z,99.90
2023-02-16T22:31:56.229Z,99.90
2023-02-16T22:34:28.641Z,99.90
2023-02-16T22:36:58.854Z,99.90
2023-02-16T22:39:31.149Z,99.90
2023-02-16T22:42:01.699Z,99.90
2023-02-16T22:44:31.566Z,99.90
2023-02-16T22:47:01.733Z,99.90
2023-02-16T22:49:34.490Z,99.90
2023-02-16T22:52:04.548Z,99.90
2023-02-16T22:54:35.004Z,99.90
2023-02-16T22:57:04.893Z,99.90
2023-02-16T22:59:34.695Z,99.90
2023-02-16T23:02:05.077Z,99.90
2023-02-16T23:04:37.535Z,99.90
2023-02-16T23:07:07.524Z,99.90
2023-02-16T23:09:37.330Z,99.90
2023-02-16T23:12:07.809Z,99.90
2023-02-16T23:14:39.710Z,99.90
2023-02-16T23:17:09.484Z,99.90
2023-02-16T23:19:41.973Z,99.90
2023-02-16T23:22:12.136Z,99.90
2023-02-16T23:24:43.477Z,99.90
2023-02-16T23:27:13.335Z,99.90
2023-02-16T23:29:43.164Z,99.90
2023-02-16T23:32:13.401Z,99.90
2023-02-16T23:34:47.114Z,99.90
2023-02-16T23:37:19.235Z,99.90
2023-02-16T23:39:49.030Z,99.90
2023-02-16T23:42:18.846Z,99.90
2023-02-16T23:44:48.608Z,99.90
2023-02-16T23:47:18.647Z,99.90
2023-02-16T23:49:51.312Z,99.90
2023-02-16T23:52:21.411Z,99.90
2023-02-16T23:54:51.684Z,99.90
2023-02-16T23:57:21.919Z,99.90
2023-02-16T23:59:54.167Z,99.90
